Time;durP1;ratioP1;P1;durP2;ratioP2;P2;SDS_P1;SDS_P2;PMS_P1;PMS_P2;Temp;Humidity;BMP_temperature;BMP_pressure;BME280_temperature;BME280_humidity;BME280_pressure;Samples;Min_cycle;Max_cycle;Signal;HPM_P1;HPM_P2
2021/03/17 00:00:39;;;;;;;6.00;3.63;;;4.30;99.90;;;5.19;100.00;98621.50;5095853;28;20533;-80
2021/03/17 00:07:07;;;;;;;4.10;3.27;;;4.40;99.90;;;5.21;100.00;98622.19;5095894;28;20961;-80
2021/03/17 00:13:36;;;;;;;4.20;3.60;;;4.40;99.90;;;5.11;100.00;98619.63;5095789;28;20427;-80
2021/03/17 00:20:11;;;;;;;5.30;3.40;;;4.10;99.90;;;4.98;100.00;98613.91;5095501;28;20474;-80
2021/03/17 00:26:45;;;;;;;4.60;3.67;;;4.00;99.90;;;4.89;100.00;98617.34;5094775;28;20422;-80
2021/03/17 00:33:20;;;;;;;5.43;3.70;;;4.20;99.90;;;4.97;100.00;98609.66;5095479;28;20454;-80
2021/03/17 00:39:54;;;;;;;4.70;2.93;;;4.20;99.90;;;4.91;100.00;98605.88;5095121;28;20462;-80
2021/03/17 00:51:25;;;;;;;5.23;3.13;;;4.20;99.90;;;4.92;100.00;98625.66;5095058;28;20992;-80
2021/03/17 00:57:59;;;;;;;3.30;3.00;;;4.20;99.90;;;5.01;100.00;98613.63;5094890;28;20407;-80
2021/03/17 01:04:26;;;;;;;4.63;3.33;;;4.00;99.90;;;4.85;100.00;98613.38;5094738;28;20746;-80
2021/03/17 01:10:54;;;;;;;4.20;2.83;;;4.00;99.90;;;4.58;100.00;98607.06;5094884;28;20743;-80
2021/03/17 01:17:21;;;;;;;3.47;3.10;;;3.60;99.90;;;4.46;100.00;98609.94;5094591;28;20949;-80
2021/03/17 01:23:55;;;;;;;3.60;3.10;;;3.60;99.90;;;4.44;100.00;98617.81;5094405;28;20919;-80
2021/03/17 01:30:35;;;;;;;9.13;3.00;;;3.60;99.90;;;4.45;100.00;98610.88;5094261;28;20480;-80
2021/03/17 01:37:02;;;;;;;4.40;2.90;;;3.40;99.90;;;4.33;100.00;98623.16;5093444;28;20415;-80
2021/03/17 01:43:30;;;;;;;3.30;2.93;;;3.50;99.90;;;4.45;100.00;98622.06;5094151;28;20481;-80
2021/03/17 01:50:27;;;;;;;10.90;3.73;;;3.50;99.90;;;4.39;100.00;98621.78;5093832;28;20540;-80
2021/03/17 01:57:00;;;;;;;6.13;2.70;;;3.50;99.90;;;4.35;100.00;98612.66;5093803;28;20470;-80
2021/03/17 02:03:28;;;;;;;5.50;3.50;;;3.60;99.90;;;4.43;100.00;98623.97;5093598;28;20497;-80
2021/03/17 02:09:56;;;;;;;3.73;2.90;;;3.50;99.90;;;4.33;100.00;98606.78;5093727;28;20536;-80
2021/03/17 02:16:36;;;;;;;4.50;3.70;;;3.60;99.90;;;4.51;100.00;98608.56;5093520;28;20817;-80
2021/03/17 02:23:25;;;;;;;3.00;2.70;;;3.80;99.90;;;4.65;100.00;98614.34;5093257;28;20469;-80
2021/03/17 02:30:53;;;;;;;6.10;3.00;;;3.90;99.90;;;4.60;100.00;98619.09;5093245;28;20476;-80
2021/03/17 02:37:26;;;;;;;4.40;3.10;;;3.70;99.90;;;4.32;100.00;98621.50;5093161;28;20414;-80
2021/03/17 02:43:57;;;;;;;4.60;3.00;;;3.70;99.90;;;4.61;100.00;98628.50;5093210;28;20406;-80
2021/03/17 02:50:43;;;;;;;5.73;3.80;;;3.90;99.90;;;4.68;100.00;98629.59;5093057;28;20504;-80
2021/03/17 02:57:21;;;;;;;3.67;2.50;;;3.80;99.90;;;4.54;100.00;98616.09;5092767;28;20403;-80
2021/03/17 03:04:17;;;;;;;4.37;3.60;;;3.70;99.90;;;4.64;100.00;98631.63;5093001;28;20765;-81
2021/03/17 03:10:54;;;;;;;6.33;3.80;;;3.90;99.90;;;4.70;100.00;98638.84;5092537;28;20510;-80
2021/03/17 03:17:29;;;;;;;7.23;5.50;;;3.90;99.90;;;4.64;100.00;98643.75;5092638;28;20469;-80
2021/03/17 03:24:04;;;;;;;5.17;4.03;;;3.80;99.90;;;4.66;100.00;98650.44;5092686;28;20508;-80
2021/03/17 03:30:43;;;;;;;8.63;4.53;;;3.80;99.90;;;4.73;100.00;98653.31;5092500;28;20461;-80
2021/03/17 03:37:17;;;;;;;5.67;4.53;;;3.90;99.90;;;4.71;100.00;98652.63;5092353;28;20431;-80
2021/03/17 03:43:50;;;;;;;9.57;6.17;;;3.80;99.90;;;4.65;100.00;98650.59;5092289;28;20426;-80
2021/03/17 03:50:42;;;;;;;6.70;5.10;;;3.90;99.90;;;4.83;100.00;98656.72;5092166;28;20811;-80
2021/03/17 03:57:22;;;;;;;10.97;6.80;;;4.10;99.90;;;4.81;100.00;98650.84;5092748;28;20835;-80
2021/03/17 04:03:58;;;;;;;10.17;6.30;;;4.00;99.90;;;4.76;100.00;98659.03;5095934;28;20574;-80
2021/03/17 04:10:33;;;;;;;10.63;6.87;;;4.00;99.90;;;4.80;100.00;98663.00;5095940;28;20418;-81
2021/03/17 04:17:22;;;;;;;9.33;7.07;;;4.00;99.90;;;4.77;100.00;98662.44;5095865;28;20782;-80
2021/03/17 04:23:54;;;;;;;10.80;7.13;;;4.00;99.90;;;4.78;100.00;98669.28;5095608;28;20798;-80
2021/03/17 04:30:28;;;;;;;7.60;5.67;;;4.00;99.90;;;4.77;100.00;98671.03;5095517;28;20415;-80
2021/03/17 04:37:04;;;;;;;10.27;7.00;;;4.20;99.90;;;4.83;100.00;98680.03;5095296;28;20482;-80
2021/03/17 04:43:40;;;;;;;9.33;6.37;;;4.10;99.90;;;4.86;100.00;98687.56;5095623;28;20412;-80
2021/03/17 04:50:29;;;;;;;10.93;6.53;;;4.30;99.90;;;4.88;100.00;98685.63;5095177;28;20466;-85
2021/03/17 04:57:07;;;;;;;7.90;5.40;;;4.20;99.90;;;4.92;100.00;98693.00;5095128;28;20941;-80
2021/03/17 05:03:43;;;;;;;5.40;4.57;;;4.20;99.90;;;4.94;100.00;98690.28;5094909;28;20495;-81
2021/03/17 05:10:18;;;;;;;8.50;5.70;;;4.20;99.90;;;4.96;100.00;98689.16;5094953;28;20435;-80
2021/03/17 05:16:47;;;;;;;6.63;4.67;;;4.20;99.90;;;4.90;100.00;98689.72;5094794;28;20418;-80
2021/03/17 05:23:21;;;;;;;10.53;6.00;;;4.20;99.90;;;4.92;100.00;98682.66;5094841;28;20430;-78
2021/03/17 05:29:59;;;;;;;5.90;4.77;;;4.20;99.90;;;4.97;100.00;98697.78;5095018;28;20469;-80
2021/03/17 05:36:33;;;;;;;4.97;3.90;;;4.30;99.90;;;4.91;100.00;98698.31;5094568;28;20495;-80
2021/03/17 05:43:08;;;;;;;6.03;4.23;;;4.10;99.90;;;4.81;100.00;98702.69;5094597;28;20458;-80
2021/03/17 05:54:41;;;;;;;5.83;3.70;;;4.10;99.90;;;4.88;100.00;98732.28;5074398;28;20835;-80
2021/03/17 06:01:08;;;;;;;6.00;4.00;;;4.20;99.90;;;4.94;100.00;98742.91;5073955;28;20499;-80
2021/03/17 06:07:52;;;;;;;4.93;3.53;;;4.40;99.90;;;4.95;100.00;98747.16;5074023;28;20970;-80
2021/03/17 06:14:31;;;;;;;4.70;3.27;;;4.30;99.90;;;4.96;100.00;98753.16;5074139;28;20916;-80
2021/03/17 06:21:06;;;;;;;4.37;3.20;;;4.30;99.90;;;4.98;100.00;98756.44;5073557;28;20482;-80
2021/03/17 06:27:37;;;;;;;5.90;3.80;;;4.20;99.90;;;4.84;100.00;98762.00;5073516;28;20466;-80
2021/03/17 06:34:12;;;;;;;4.97;3.90;;;4.20;99.90;;;4.88;100.00;98758.19;5074233;28;20842;-79
2021/03/17 06:40:57;;;;;;;5.40;3.87;;;4.10;99.90;;;4.88;100.00;98764.19;5074282;28;20558;-80
2021/03/17 06:47:31;;;;;;;5.73;4.10;;;4.20;99.90;;;4.97;100.00;98765.16;5073186;28;21091;-80
2021/03/17 06:54:24;;;;;;;6.83;4.23;;;4.40;99.90;;;5.03;100.00;98762.03;5093235;28;20511;-80
2021/03/17 07:00:58;;;;;;;6.27;4.93;;;4.40;99.90;;;5.07;100.00;98758.19;5093219;28;20494;-80
2021/03/17 07:07:48;;;;;;;5.23;3.90;;;4.30;99.90;;;5.08;100.00;98765.03;5093063;28;20422;-80
2021/03/17 07:14:24;;;;;;;8.50;4.77;;;4.40;99.90;;;5.08;100.00;98759.84;5093120;28;20925;-80
2021/03/17 07:21:00;;;;;;;8.23;5.17;;;4.40;99.90;;;5.17;100.00;98768.59;5093022;28;20462;-80
2021/03/17 07:27:35;;;;;;;5.80;4.63;;;4.50;99.90;;;5.17;100.00;98772.03;5093076;28;20574;-80
2021/03/17 07:34:26;;;;;;;8.70;5.40;;;4.50;99.90;;;5.24;100.00;98770.50;5092965;28;20918;-80
2021/03/17 07:41:01;;;;;;;8.93;4.77;;;4.50;99.90;;;5.26;100.00;98768.59;5096976;28;21156;-80
2021/03/17 07:47:34;;;;;;;8.83;5.90;;;4.50;99.90;;;5.35;100.00;98761.75;5096851;28;20422;-80
2021/03/17 07:54:28;;;;;;;6.70;4.73;;;4.70;99.90;;;5.42;100.00;98765.44;5096701;28;20820;-80
2021/03/17 08:01:02;;;;;;;6.87;4.00;;;4.80;99.90;;;5.51;100.00;98756.88;5096492;28;20820;-80
2021/03/17 08:07:39;;;;;;;3.93;3.30;;;4.90;99.90;;;5.53;100.00;98770.50;5096516;28;20494;-80
2021/03/17 08:14:16;;;;;;;3.97;2.80;;;4.90;99.90;;;5.66;100.00;98765.06;5096328;28;20545;-80
2021/03/17 08:20:52;;;;;;;4.00;3.10;;;5.00;99.90;;;5.69;100.00;98770.78;5096065;28;20462;-80
2021/03/17 08:27:27;;;;;;;3.00;2.70;;;5.10;99.90;;;5.77;100.00;98772.66;5096263;28;20415;-80
2021/03/17 08:34:26;;;;;;;2.77;1.90;;;5.10;99.90;;;5.82;100.00;98757.50;5096057;28;20411;-80
2021/03/17 08:41:00;;;;;;;2.20;2.00;;;4.90;99.90;;;5.76;100.00;98765.84;5095848;28;20493;-80
2021/03/17 08:47:46;;;;;;;2.23;1.80;;;5.10;99.90;;;5.96;100.00;98751.91;5095119;28;20426;-80
2021/03/17 08:55:03;;;;;;;2.87;2.17;;;5.20;99.90;;;6.13;100.00;98758.16;5095595;28;20880;-80
2021/03/17 09:01:34;;;;;;;1.90;1.80;;;5.40;99.90;;;6.25;100.00;98757.81;5095278;28;20540;-80
2021/03/17 09:08:06;;;;;;;2.40;1.90;;;5.50;99.90;;;6.22;100.00;98758.09;5095223;28;20419;-80
2021/03/17 09:14:42;;;;;;;2.57;1.90;;;5.60;99.90;;;6.21;100.00;98769.47;5095220;28;20443;-80
2021/03/17 09:21:29;;;;;;;2.03;1.80;;;5.70;99.90;;;6.15;100.00;98761.41;5095267;28;20987;-79
2021/03/17 09:28:07;;;;;;;1.50;1.40;;;5.40;99.90;;;6.17;100.00;98760.34;5094948;28;20855;-80
2021/03/17 09:34:37;;;;;;;1.60;1.47;;;5.60;99.90;;;6.39;100.00;98769.53;5094724;28;20524;-80
2021/03/17 09:41:13;;;;;;;1.40;1.30;;;5.80;99.90;;;6.27;100.00;98770.69;5094656;28;20490;-80
2021/03/17 09:48:02;;;;;;;1.37;1.27;;;5.70;99.90;;;6.38;100.00;98773.94;5094266;28;20407;-80
2021/03/17 09:54:43;;;;;;;1.13;1.00;;;5.60;99.90;;;6.30;100.00;98776.41;5094438;28;20864;-80
2021/03/17 10:01:13;;;;;;;1.20;1.10;;;5.80;99.90;;;6.25;100.00;98768.22;5094171;28;20540;-80
2021/03/17 10:07:46;;;;;;;1.53;1.17;;;5.70;99.90;;;6.38;100.00;98773.94;5094365;28;20589;-80
2021/03/17 10:14:21;;;;;;;1.60;1.20;;;5.70;99.90;;;6.39;100.00;98775.53;5094062;28;20419;-80
2021/03/17 10:20:56;;;;;;;1.10;0.93;;;5.50;99.90;;;6.38;100.00;98766.13;5093832;28;20963;-80
2021/03/17 10:27:35;;;;;;;1.20;1.10;;;5.70;99.90;;;6.50;100.00;98757.19;5093866;28;20418;-78
2021/03/17 10:34:15;;;;;;;1.20;1.10;;;5.70;99.90;;;6.30;100.00;98766.03;5093718;28;20403;-80
2021/03/17 10:40:50;;;;;;;1.20;1.07;;;5.80;99.90;;;6.41;100.00;98758.06;5093568;28;20533;-79
2021/03/17 10:47:18;;;;;;;1.13;1.03;;;5.80;99.90;;;6.46;100.00;98739.41;5093501;28;20517;-80
2021/03/17 10:54:12;;;;;;;1.10;0.90;;;5.80;99.90;;;6.52;100.00;98736.28;5093473;28;20426;-80
2021/03/17 11:00:48;;;;;;;1.07;0.80;;;6.00;99.90;;;6.73;100.00;98723.84;5093349;28;20981;-80
2021/03/17 11:07:22;;;;;;;1.30;1.20;;;6.20;99.90;;;6.98;100.00;98730.09;5093436;28;20498;-79
2021/03/17 11:13:57;;;;;;;1.23;1.03;;;6.60;99.90;;;7.09;100.00;98727.28;5093512;28;20926;-80
2021/03/17 11:20:31;;;;;;;1.93;1.20;;;6.60;99.90;;;7.19;100.00;98728.03;5093024;28;20603;-79
2021/03/17 11:27:06;;;;;;;1.00;0.90;;;6.70;99.90;;;7.24;100.00;98719.78;5093098;28;20422;-80
2021/03/17 11:33:34;;;;;;;1.20;1.10;;;6.50;99.90;;;7.21;100.00;98720.91;5092960;28;20477;-80
2021/03/17 11:40:10;;;;;;;1.33;1.07;;;6.40;99.90;;;7.15;100.00;98721.47;5092924;28;20485;-80
2021/03/17 11:46:44;;;;;;;1.30;1.20;;;6.60;99.90;;;7.27;100.00;98707.31;5093113;28;21006;-79
2021/03/17 11:53:21;;;;;;;1.53;1.43;;;6.60;99.90;;;7.32;98.07;98705.09;5092895;28;20407;-80
2021/03/17 11:59:49;;;;;;;1.60;1.47;;;6.80;99.90;;;7.47;97.69;98694.94;5092830;28;20418;-80
2021/03/17 12:06:17;;;;;;;1.40;1.30;;;7.00;99.90;;;7.50;97.24;98686.81;5092759;28;20447;-80
2021/03/17 12:12:51;;;;;;;2.90;1.40;;;7.00;99.90;;;7.67;96.44;98677.34;5092674;28;20434;-80
2021/03/17 12:19:25;;;;;;;1.70;1.57;;;7.20;99.90;;;7.82;91.77;98668.00;5092363;28;20418;-80
2021/03/17 12:25:58;;;;;;;1.23;1.13;;;7.30;99.90;;;7.72;92.27;98668.13;5096115;28;20407;-80
2021/03/17 12:32:33;;;;;;;2.60;1.80;;;7.20;99.90;;;7.87;92.50;98657.94;5096015;28;20464;-80
2021/03/17 12:39:10;;;;;;;3.13;2.27;;;7.30;99.90;;;7.83;93.19;98683.47;5095993;28;20511;-79
2021/03/17 12:45:45;;;;;;;2.27;1.83;;;7.10;99.90;;;7.49;92.00;98691.22;5095701;28;20423;-80
2021/03/17 12:56:56;;;;;;;2.30;2.00;;;6.70;99.90;;;7.26;90.88;98690.06;5095593;28;20415;-80
2021/03/17 13:03:31;;;;;;;2.43;1.80;;;6.60;99.90;;;7.15;90.11;98689.47;5095412;28;20526;-80
2021/03/17 13:10:09;;;;;;;2.07;1.80;;;6.50;99.90;;;7.18;89.60;98683.97;5095606;28;20469;-80
2021/03/17 13:16:38;;;;;;;2.10;1.80;;;6.40;99.90;;;7.00;87.69;98686.59;5095380;28;20434;-79
2021/03/17 13:23:12;;;;;;;1.87;1.77;;;6.30;99.90;;;6.86;87.80;98687.91;5095010;28;20854;-79
2021/03/17 13:29:47;;;;;;;2.13;1.60;;;6.30;99.90;;;6.98;87.35;98686.72;5094907;28;20819;-79
2021/03/17 13:36:22;;;;;;;1.73;1.57;;;6.40;99.90;;;7.09;84.44;98680.47;5094778;28;20430;-79
2021/03/17 13:42:56;;;;;;;1.50;1.40;;;6.60;99.90;;;7.28;83.67;98679.50;5094721;28;20473;-79
2021/03/17 13:49:24;;;;;;;3.90;1.80;;;6.80;99.80;;;7.46;82.16;98664.69;5094485;28;20430;-80
2021/03/17 13:56:17;;;;;;;1.30;1.20;;;6.90;99.60;;;7.71;78.96;98678.66;5094630;28;20419;-80
2021/03/17 14:02:50;;;;;;;46.23;20.20;;;7.10;99.90;;;7.54;81.42;98688.16;5094603;28;20490;-81
2021/03/17 14:09:24;;;;;;;2.07;1.63;;;6.80;99.90;;;7.36;82.37;98700.38;5094204;28;20972;-80
2021/03/17 14:16:00;;;;;;;3.27;1.77;;;6.60;99.90;;;6.98;82.46;98706.69;5093846;28;20918;-81
2021/03/17 14:22:28;;;;;;;5.00;2.07;;;6.30;99.90;;;6.99;82.88;98721.34;5093998;28;20517;-80
2021/03/17 14:29:02;;;;;;;8.13;1.77;;;6.40;99.90;;;6.96;83.11;98721.63;5093501;28;20451;-84
2021/03/17 14:35:37;;;;;;;2.33;1.97;;;6.40;99.90;;;7.02;84.02;98710.63;5093430;28;20525;-81
2021/03/17 14:42:11;;;;;;;2.60;1.67;;;6.40;99.90;;;7.03;83.43;98714.88;5093230;28;20470;-80
2021/03/17 14:48:41;;;;;;;2.17;1.57;;;6.40;99.90;;;6.97;85.15;98731.09;5093260;28;20503;-80
2021/03/17 15:00:16;;;;;;;3.87;1.70;;;6.00;99.90;;;6.82;82.93;98729.94;5072929;28;20419;-80
2021/03/17 15:06:52;;;;;;;1.70;1.60;;;6.30;99.80;;;6.86;80.85;98705.28;5073200;28;20455;-80
2021/03/17 15:13:26;;;;;;;2.07;1.70;;;6.30;99.90;;;6.97;81.69;98708.50;5072907;28;20459;-81
2021/03/17 15:20:00;;;;;;;1.90;1.50;;;6.40;99.20;;;6.93;77.69;98706.34;5072782;28;20423;-80
2021/03/17 15:26:35;;;;;;;11.03;1.70;;;6.30;98.30;;;7.06;75.52;98704.19;5072974;28;20492;-81
2021/03/17 15:33:09;;;;;;;1.87;1.50;;;6.60;99.20;;;7.42;74.80;98707.59;5072833;28;20466;-81
2021/03/17 15:39:44;;;;;;;2.30;1.60;;;7.10;97.10;;;7.79;71.78;98707.34;5072517;28;20592;-81
2021/03/17 15:46:18;;;;;;;1.83;1.67;;;7.40;97.10;;;8.18;67.50;98703.34;5072516;28;20792;-80
2021/03/17 15:52:47;;;;;;;2.60;1.97;;;7.80;94.90;;;8.48;63.58;98717.69;5072619;28;20919;-81
2021/03/17 15:59:40;;;;;;;1.83;1.73;;;8.00;95.20;;;8.44;62.66;98719.78;5096378;28;20414;-81
2021/03/17 16:06:14;;;;;;;2.20;1.90;;;7.80;94.30;;;8.08;61.63;98739.13;5096237;28;20941;-80
2021/03/17 16:12:44;;;;;;;2.73;1.60;;;7.30;94.20;;;7.78;63.93;98740.38;5096374;28;20425;-80
2021/03/17 16:19:21;;;;;;;2.93;1.50;;;7.00;95.40;;;7.55;66.70;98747.03;5096113;28;20407;-81
2021/03/17 16:25:55;;;;;;;1.63;1.50;;;6.80;96.10;;;7.43;69.26;98761.25;5095983;28;20510;-81
2021/03/17 16:32:23;;;;;;;5.63;1.50;;;6.60;96.90;;;7.22;72.51;98777.16;5095730;28;20834;-81
2021/03/17 16:38:58;;;;;;;2.07;1.80;;;6.30;97.50;;;6.95;75.28;98785.81;5095711;28;20426;-81
2021/03/17 16:45:33;;;;;;;5.80;1.77;;;6.20;98.10;;;6.85;75.32;98779.84;5095494;28;20513;-81
2021/03/17 16:52:06;;;;;;;4.17;2.57;;;6.10;97.40;;;6.75;74.05;98789.47;5095138;28;20408;-81
2021/03/17 16:58:41;;;;;;;3.60;2.23;;;6.10;97.40;;;6.54;74.50;98800.09;5094878;28;20831;-81
2021/03/17 17:05:15;;;;;;;2.43;1.80;;;5.90;97.80;;;6.52;73.95;98817.63;5095302;28;20524;-80
2021/03/17 17:11:50;;;;;;;5.90;2.23;;;5.80;97.10;;;6.43;75.93;98808.06;5095119;28;20523;-81
2021/03/17 17:18:24;;;;;;;6.17;2.30;;;5.80;97.40;;;6.36;75.90;98811.38;5094778;28;20772;-80
2021/03/17 17:24:58;;;;;;;5.57;1.80;;;5.70;96.60;;;6.31;72.25;98811.81;5094643;28;20465;-80
2021/03/17 17:31:26;;;;;;;2.80;1.90;;;5.50;96.90;;;6.14;72.55;98828.13;5094667;28;20473;-80
2021/03/17 17:38:04;;;;;;;3.03;1.83;;;5.40;96.50;;;6.07;72.65;98835.63;5094513;28;20419;-80
2021/03/17 17:44:38;;;;;;;5.60;1.87;;;5.50;97.30;;;6.06;73.59;98846.16;5094078;28;20414;-80
2021/03/17 17:51:06;;;;;;;3.80;2.07;;;5.30;96.90;;;5.91;75.12;98852.72;5094021;28;20936;-80
2021/03/17 18:02:38;;;;;;;3.23;2.27;;;5.10;97.80;;;5.85;76.02;98868.81;5093902;28;20462;-80
2021/03/17 18:09:12;;;;;;;1.40;1.10;;;5.10;97.00;;;5.82;75.09;98884.66;5093832;28;20418;-80
2021/03/17 18:15:47;;;;;;;2.37;1.43;;;5.10;97.20;;;5.84;77.46;98887.94;5093782;28;21040;-80
2021/03/17 18:22:16;;;;;;;2.13;1.30;;;5.10;97.40;;;5.84;75.34;98893.13;5093421;28;20969;-80
2021/03/17 18:28:50;;;;;;;5.23;1.83;;;5.20;96.30;;;5.71;73.65;98893.41;5093443;28;20474;-80
2021/03/17 18:35:27;;;;;;;1.80;1.40;;;5.10;97.20;;;5.79;75.52;98895.31;5093456;28;20481;-81
2021/03/17 18:42:03;;;;;;;3.23;1.97;;;5.10;96.80;;;5.67;75.43;98901.56;5093494;28;20561;-81
2021/03/17 18:48:29;;;;;;;1.70;1.50;;;5.00;97.20;;;5.72;77.27;98902.84;5093163;28;20439;-81
2021/03/17 18:54:57;;;;;;;4.77;2.50;;;5.10;97.50;;;5.68;77.32;98906.66;5092684;28;20419;-82
2021/03/17 19:01:54;;;;;;;3.30;1.50;;;4.90;97.70;;;5.50;79.50;98898.69;5092732;28;20458;-82
2021/03/17 19:08:29;;;;;;;9.70;1.60;;;4.80;99.10;;;5.46;80.51;98905.09;5092769;28;20499;-82
2021/03/17 19:14:57;;;;;;;9.20;1.43;;;4.80;99.30;;;5.44;82.08;98896.66;5092646;28;20434;-84
2021/03/17 19:21:33;;;;;;;2.80;1.50;;;4.70;98.50;;;5.45;83.49;98892.25;5092343;28;20493;-81
2021/03/17 19:28:08;;;;;;;1.97;1.50;;;4.70;99.70;;;5.41;83.87;98903.88;5092717;28;20410;-81
2021/03/17 19:34:42;;;;;;;3.70;1.60;;;4.80;99.40;;;5.43;80.33;98899.34;5096844;28;20600;-81
2021/03/17 19:41:11;;;;;;;5.13;1.70;;;4.80;98.90;;;5.43;83.68;98899.34;5096604;28;21026;-81
2021/03/17 19:47:46;;;;;;;4.17;1.50;;;4.80;99.00;;;5.31;84.93;98909.00;5096482;28;20414;-81
2021/03/17 19:54:20;;;;;;;3.53;1.53;;;4.50;99.90;;;5.34;87.77;98890.63;5096143;28;20418;-81
2021/03/17 20:05:50;;;;;;;2.27;1.40;;;4.70;99.90;;;5.33;86.99;98865.63;5096389;28;20488;-81
2021/03/17 20:12:26;;;;;;;3.70;1.60;;;4.50;99.90;;;5.39;85.62;98867.69;5096266;28;20406;-80
2021/03/17 20:19:00;;;;;;;7.73;2.00;;;4.60;99.90;;;5.22;86.67;98864.91;5095802;28;20435;-81
2021/03/17 20:25:35;;;;;;;4.40;1.57;;;4.30;99.90;;;5.03;90.66;98876.06;5095710;28;20957;-80
2021/03/17 20:32:09;;;;;;;11.33;2.07;;;4.10;99.90;;;5.00;90.92;98877.13;5095888;28;20953;-80
2021/03/17 20:38:44;;;;;;;6.43;1.53;;;4.10;99.90;;;4.94;91.14;98869.06;5095567;28;20426;-81
2021/03/17 20:45:17;;;;;;;3.90;2.10;;;4.20;99.90;;;4.92;93.54;98881.34;5095335;28;20414;-81
2021/03/17 20:51:51;;;;;;;2.30;1.90;;;4.00;99.90;;;4.84;93.68;98897.53;5095266;28;20426;-82
2021/03/17 20:58:24;;;;;;;3.57;1.50;;;4.10;99.90;;;4.75;94.72;98908.69;5095356;28;20487;-82
2021/03/17 21:05:21;;;;;;;3.63;1.90;;;3.90;99.90;;;4.60;95.24;98924.69;5095066;28;20473;-81
2021/03/17 21:11:54;;;;;;;2.37;1.70;;;3.80;99.90;;;4.67;98.29;98936.16;5094586;28;20457;-81
2021/03/17 21:18:30;;;;;;;2.97;2.00;;;3.80;99.90;;;4.64;98.68;98931.25;5094658;28;20462;-81
2021/03/17 21:25:09;;;;;;;2.20;1.53;;;3.60;99.90;;;4.54;99.78;98942.38;5094632;28;20457;-81
2021/03/17 21:31:43;;;;;;;4.37;2.00;;;3.80;99.90;;;4.45;98.38;98952.66;5094772;28;20814;-81
2021/03/17 21:38:10;;;;;;;3.23;1.60;;;3.60;99.90;;;4.53;100.00;98956.25;5094240;28;20426;-81
2021/03/17 21:44:46;;;;;;;6.47;1.80;;;3.80;99.90;;;4.64;96.55;98962.31;5094053;28;20481;-81
2021/03/17 21:51:20;;;;;;;4.40;2.13;;;3.90;99.90;;;4.73;96.32;98977.09;5094049;28;20473;-81
2021/03/17 21:57:53;;;;;;;100.03;40.70;;;4.10;99.90;;;4.78;95.51;98982.72;5094539;28;20473;-81
2021/03/17 22:04:28;;;;;;;7.90;2.30;;;4.10;99.90;;;4.72;97.45;98985.84;5093731;28;20435;-81
2021/03/17 22:11:03;;;;;;;2.40;1.87;;;3.90;99.90;;;4.74;98.01;98976.16;5093716;28;20549;-80
2021/03/17 22:17:38;;;;;;;4.70;1.97;;;3.90;99.90;;;4.70;98.53;98982.53;5093577;28;20739;-80
2021/03/17 22:24:15;;;;;;;2.57;1.40;;;3.90;99.90;;;4.62;99.91;98985.75;5093332;28;20633;-80
2021/03/17 22:30:46;;;;;;;2.67;1.77;;;3.80;99.90;;;4.53;100.00;98989.94;5093437;28;20614;-80
2021/03/17 22:37:13;;;;;;;5.53;1.73;;;3.70;99.90;;;4.64;100.00;98983.03;5092805;28;20446;-80
2021/03/17 22:43:48;;;;;;;3.40;1.70;;;3.80;99.90;;;4.64;100.00;98983.88;5093477;28;20470;-80
2021/03/17 22:50:28;;;;;;;2.53;1.47;;;3.90;99.90;;;4.65;100.00;98966.56;5092970;28;20434;-80
2021/03/17 22:57:02;;;;;;;6.93;1.90;;;3.90;99.90;;;4.63;100.00;98965.84;5092935;28;20418;-80
2021/03/17 23:08:40;;;;;;;7.77;1.80;;;3.70;99.90;;;4.36;100.00;98974.97;5093314;28;20656;-81
2021/03/17 23:15:09;;;;;;;4.70;2.07;;;3.60;99.90;;;4.52;100.00;98964.97;5092566;28;20406;-80
2021/03/17 23:21:45;;;;;;;3.53;1.70;;;3.90;99.90;;;4.56;100.00;98961.19;5092978;28;20461;-80
2021/03/17 23:28:19;;;;;;;3.77;1.70;;;3.80;99.90;;;4.50;100.00;98961.69;5092545;28;20548;-80
2021/03/17 23:34:56;;;;;;;4.07;1.90;;;3.80;99.90;;;4.45;100.00;98958.66;5092570;28;20976;-81
2021/03/17 23:41:24;;;;;;;4.37;1.90;;;3.70;99.90;;;4.38;100.00;98960.09;5092213;28;20469;-80
2021/03/17 23:47:58;;;;;;;8.60;2.23;;;3.70;99.90;;;4.48;100.00;98973.94;5092421;28;20896;-80
2021/03/17 23:54:32;;;;;;;5.40;1.70;;;3.80;99.90;;;4.55;100.00;98966.47;5092422;28;20414;-81
